Time;durP1;ratioP1;P1;durP2;ratioP2;P2;SDS_P1;SDS_P2;PMS_P1;PMS_P2;Temp;Humidity;BMP_temperature;BMP_pressure;BME280_temperature;BME280_humidity;BME280_pressure;Samples;Min_cycle;Max_cycle;Signal;HPM_P1;HPM_P2
2023/06/29 00:01:01;;;;;;;2.92;2.20;;;26.20;40.50;;;;;;5109050;27;46609;-70
2023/06/29 00:03:28;;;;;;;1.95;1.83;;;26.20;40.60;;;;;;5109179;27;45420;-70
2023/06/29 00:05:55;;;;;;;4.32;2.13;;;26.20;40.90;;;;;;5109142;27;45358;-69
2023/06/29 00:08:23;;;;;;;2.92;1.92;;;26.20;40.90;;;;;;5109176;27;45476;-70
2023/06/29 00:10:50;;;;;;;2.47;1.90;;;26.10;41.00;;;;;;5109002;27;46607;-69
2023/06/29 00:13:18;;;;;;;2.60;1.92;;;26.10;40.80;;;;;;5108885;27;45362;-71
2023/06/29 00:15:45;;;;;;;2.28;2.05;;;26.10;41.20;;;;;;5109015;27;45267;-69
2023/06/29 00:18:13;;;;;;;2.95;2.20;;;26.10;41.10;;;;;;5109070;27;45536;-70
2023/06/29 00:20:40;;;;;;;2.58;1.92;;;26.10;41.20;;;;;;5108889;27;45548;-70
2023/06/29 00:23:07;;;;;;;3.50;1.90;;;26.10;41.60;;;;;;5108689;27;45311;-70
2023/06/29 00:25:33;;;;;;;3.75;1.98;;;26.10;41.80;;;;;;5108566;27;45308;-69
2023/06/29 00:28:00;;;;;;;2.55;1.75;;;26.00;41.80;;;;;;5109079;27;45366;-69
2023/06/29 00:30:28;;;;;;;1.88;1.77;;;26.00;41.70;;;;;;5108568;27;47323;-70
2023/06/29 00:32:55;;;;;;;2.30;2.13;;;26.00;41.80;;;;;;5108501;27;45272;-70
2023/06/29 00:35:22;;;;;;;2.28;1.88;;;26.00;41.90;;;;;;5108651;27;45360;-70
2023/06/29 00:37:49;;;;;;;2.42;2.00;;;26.00;42.00;;;;;;5108852;27;45458;-69
2023/06/29 00:40:16;;;;;;;2.55;1.60;;;25.90;41.40;;;;;;5108189;27;45563;-70
2023/06/29 00:42:43;;;;;;;2.03;1.83;;;25.90;41.80;;;;;;5108432;27;45296;-69
2023/06/29 00:45:10;;;;;;;2.33;2.03;;;25.90;42.00;;;;;;5108544;27;45356;-70
2023/06/29 00:47:38;;;;;;;2.28;1.80;;;25.90;42.10;;;;;;5108590;27;45474;-70
2023/06/29 00:50:06;;;;;;;2.67;1.88;;;25.90;42.20;;;;;;5108097;27;46403;-70
2023/06/29 00:52:32;;;;;;;3.13;2.00;;;25.80;42.30;;;;;;5108175;27;45269;-69
2023/06/29 00:54:59;;;;;;;2.05;1.60;;;25.80;42.30;;;;;;5108188;27;45333;-70
2023/06/29 00:57:29;;;;;;;4.50;2.05;;;25.80;42.40;;;;;;5108538;27;45516;-70
2023/06/29 00:59:59;;;;;;;2.67;1.48;;;25.70;42.30;;;;;;5108161;27;46648;-69
2023/06/29 01:02:28;;;;;;;2.60;1.80;;;25.70;42.20;;;;;;5107976;27;45371;-70
2023/06/29 01:04:56;;;;;;;3.22;1.90;;;25.70;42.10;;;;;;5108097;27;45345;-70
2023/06/29 01:07:24;;;;;;;3.47;1.67;;;25.70;42.20;;;;;;5108303;27;45431;-69
2023/06/29 01:09:52;;;;;;;2.10;1.80;;;25.60;42.20;;;;;;5107722;27;46404;-70
2023/06/29 01:12:18;;;;;;;2.08;1.80;;;25.60;42.20;;;;;;5107779;27;45352;-69
2023/06/29 01:14:45;;;;;;;2.38;1.80;;;25.60;42.20;;;;;;5107954;27;45335;-69
2023/06/29 01:17:13;;;;;;;1.65;1.55;;;25.60;41.90;;;;;;5108091;27;45593;-70
2023/06/29 01:19:42;;;;;;;2.78;1.70;;;25.50;41.90;;;;;;5107719;27;46400;-69
2023/06/29 01:22:13;;;;;;;2.78;1.77;;;25.50;42.00;;;;;;5107559;27;45353;-69
2023/06/29 01:24:41;;;;;;;1.85;1.45;;;25.50;42.90;;;;;;5107808;27;45272;-69
2023/06/29 01:27:08;;;;;;;1.60;1.50;;;25.50;42.60;;;;;;5107983;27;45453;-69
2023/06/29 01:29:35;;;;;;;2.55;1.67;;;25.50;42.90;;;;;;5107640;27;46385;-69
2023/06/29 01:32:03;;;;;;;3.33;1.92;;;25.50;42.80;;;;;;5107504;27;45335;-69
2023/06/29 01:34:30;;;;;;;1.73;1.63;;;25.40;42.50;;;;;;5107717;27;45322;-69
2023/06/29 01:37:01;;;;;;;3.45;1.98;;;25.40;42.40;;;;;;5107768;27;45273;-69
2023/06/29 01:39:29;;;;;;;2.33;1.98;;;25.40;42.30;;;;;;5107381;27;46620;-70
2023/06/29 01:41:57;;;;;;;2.70;1.80;;;25.40;42.30;;;;;;5107589;27;45287;-70
2023/06/29 01:44:24;;;;;;;3.72;1.75;;;25.40;42.40;;;;;;5107388;27;45325;-69
2023/06/29 01:46:51;;;;;;;1.90;1.80;;;25.30;42.30;;;;;;5107590;27;45369;-69
2023/06/29 01:49:18;;;;;;;4.63;1.88;;;25.30;42.40;;;;;;5107359;27;45617;-69
2023/06/29 01:51:44;;;;;;;4.50;1.67;;;25.30;42.40;;;;;;5106947;27;45325;-70
2023/06/29 01:54:11;;;;;;;2.92;1.90;;;25.30;42.20;;;;;;5107281;27;45318;-69
2023/06/29 01:56:38;;;;;;;2.85;1.73;;;25.30;42.40;;;;;;5107353;27;45332;-69
2023/06/29 01:59:06;;;;;;;2.13;1.80;;;25.30;42.40;;;;;;5107059;27;46376;-70
2023/06/29 02:01:33;;;;;;;1.95;1.60;;;25.30;42.40;;;;;;5106955;27;45321;-69
2023/06/29 02:04:00;;;;;;;3.70;1.98;;;25.20;42.40;;;;;;5107165;27;45320;-69
2023/06/29 02:06:26;;;;;;;2.30;2.10;;;25.20;42.80;;;;;;5107282;27;45260;-69
2023/06/29 02:08:53;;;;;;;3.42;1.80;;;25.00;43.30;;;;;;5107242;27;45530;-69
2023/06/29 02:11:20;;;;;;;3.90;2.03;;;24.90;43.90;;;;;;5106873;27;45455;-69
2023/06/29 02:13:48;;;;;;;2.88;1.98;;;24.80;44.00;;;;;;5107039;27;45451;-69
2023/06/29 02:16:16;;;;;;;5.10;2.17;;;24.70;44.80;;;;;;5107266;27;45314;-69
2023/06/29 02:18:43;;;;;;;2.75;1.90;;;24.60;44.40;;;;;;5106606;27;46398;-69
2023/06/29 02:21:09;;;;;;;2.85;1.90;;;24.50;44.80;;;;;;5106351;27;45388;-69
2023/06/29 02:23:36;;;;;;;3.50;2.08;;;24.50;45.00;;;;;;5106773;27;45317;-69
2023/06/29 02:26:03;;;;;;;5.53;2.30;;;24.40;45.10;;;;;;5107241;27;45377;-69
2023/06/29 02:28:30;;;;;;;3.10;1.75;;;24.30;45.20;;;;;;5106455;27;45281;-69
2023/06/29 02:30:56;;;;;;;2.20;1.73;;;24.30;45.40;;;;;;5106699;27;45264;-69
2023/06/29 02:33:25;;;;;;;2.47;1.73;;;24.20;45.50;;;;;;5106625;27;45454;-69
2023/06/29 02:35:51;;;;;;;1.83;1.70;;;24.20;45.80;;;;;;5106828;27;45569;-69
2023/06/29 02:38:18;;;;;;;2.85;1.80;;;24.10;46.30;;;;;;5106422;27;46409;-69
2023/06/29 02:40:45;;;;;;;2.10;1.80;;;24.20;46.60;;;;;;5106375;27;45180;-69
2023/06/29 02:43:12;;;;;;;3.97;2.10;;;24.10;46.60;;;;;;5106526;27;45369;-69
2023/06/29 02:45:39;;;;;;;3.08;2.17;;;24.00;47.00;;;;;;5106553;27;45306;-69
2023/06/29 02:48:06;;;;;;;4.43;2.20;;;24.00;47.20;;;;;;5106343;27;45389;-69
2023/06/29 02:50:34;;;;;;;4.95;1.92;;;24.00;47.50;;;;;;5106116;27;45320;-69
2023/06/29 02:53:01;;;;;;;2.92;2.03;;;23.90;48.10;;;;;;5106419;27;45317;-69
2023/06/29 02:55:30;;;;;;;4.07;2.20;;;23.90;47.60;;;;;;5106668;27;45242;-69
2023/06/29 02:57:57;;;;;;;2.40;1.85;;;23.90;47.80;;;;;;5105954;27;47312;-68
2023/06/29 03:00:23;;;;;;;4.60;2.00;;;23.80;47.90;;;;;;5106099;27;45245;-68
2023/06/29 03:02:50;;;;;;;4.53;2.17;;;23.80;48.70;;;;;;5106153;27;45340;-68
2023/06/29 03:05:17;;;;;;;2.28;1.88;;;23.70;48.20;;;;;;5106509;27;45462;-69
2023/06/29 03:07:45;;;;;;;4.00;2.33;;;23.70;48.40;;;;;;5105966;27;46691;-68
2023/06/29 03:10:12;;;;;;;1.83;1.70;;;23.70;48.40;;;;;;5106117;27;45287;-69
2023/06/29 03:12:39;;;;;;;2.78;2.45;;;23.70;49.10;;;;;;5106082;27;45272;-68
2023/06/29 03:15:06;;;;;;;2.75;2.40;;;23.60;48.50;;;;;;5106398;27;45375;-68
2023/06/29 03:17:33;;;;;;;3.60;2.15;;;23.60;48.60;;;;;;5105753;27;46772;-68
2023/06/29 03:20:00;;;;;;;3.63;2.17;;;23.50;48.60;;;;;;5105856;27;45358;-69
2023/06/29 03:22:27;;;;;;;3.88;2.42;;;23.50;48.70;;;;;;5106014;27;45315;-69
2023/06/29 03:24:55;;;;;;;3.58;2.22;;;23.50;48.80;;;;;;5106308;27;45422;-70
2023/06/29 03:27:21;;;;;;;4.75;1.92;;;23.50;48.70;;;;;;5105776;27;45330;-70
2023/06/29 03:29:50;;;;;;;4.18;2.25;;;23.50;48.70;;;;;;5105729;27;45281;-70
2023/06/29 03:32:16;;;;;;;2.58;2.38;;;23.60;48.90;;;;;;5105711;27;45385;-70
2023/06/29 03:34:43;;;;;;;3.15;2.10;;;23.50;49.30;;;;;;5108359;27;45417;-70
2023/06/29 03:37:10;;;;;;;3.97;1.65;;;23.50;48.70;;;;;;5109566;27;45235;-70
2023/06/29 03:39:37;;;;;;;3.15;1.90;;;23.50;48.70;;;;;;5109461;27;45348;-70
2023/06/29 03:42:06;;;;;;;2.17;1.73;;;23.50;48.90;;;;;;5109634;27;45612;-70
2023/06/29 03:44:34;;;;;;;3.00;2.13;;;23.50;49.00;;;;;;5109679;27;45374;-70
2023/06/29 03:47:00;;;;;;;3.88;1.88;;;23.40;49.00;;;;;;5109234;27;46402;-70
2023/06/29 03:49:27;;;;;;;3.40;1.88;;;23.40;49.30;;;;;;5109210;27;45356;-70
2023/06/29 03:51:54;;;;;;;3.33;1.85;;;23.40;49.40;;;;;;5108991;27;45349;-70
2023/06/29 03:54:21;;;;;;;3.58;2.40;;;23.30;49.50;;;;;;5109306;27;45418;-69
2023/06/29 03:56:47;;;;;;;5.40;2.15;;;23.30;49.60;;;;;;5108899;27;46344;-70
2023/06/29 03:59:15;;;;;;;3.75;2.00;;;23.30;49.70;;;;;;5109255;27;45284;-70
2023/06/29 04:01:42;;;;;;;6.15;2.00;;;23.20;49.70;;;;;;5109504;27;45326;-70
2023/06/29 04:04:09;;;;;;;3.20;2.03;;;23.20;49.70;;;;;;5109275;27;45402;-70
2023/06/29 04:06:36;;;;;;;4.32;2.13;;;23.20;49.90;;;;;;5108818;27;46431;-70
2023/06/29 04:09:03;;;;;;;3.85;2.10;;;23.20;50.30;;;;;;5109339;27;45413;-70
2023/06/29 04:11:30;;;;;;;4.60;2.20;;;23.20;50.20;;;;;;5109107;27;45199;-70
2023/06/29 04:13:57;;;;;;;2.58;1.92;;;23.20;50.20;;;;;;5108924;27;45410;-70
2023/06/29 04:16:25;;;;;;;4.30;1.88;;;23.10;50.10;;;;;;5108487;27;45453;-70
2023/06/29 04:18:51;;;;;;;2.58;1.73;;;23.10;50.00;;;;;;5108746;27;45387;-70
2023/06/29 04:21:18;;;;;;;2.97;1.77;;;23.10;49.60;;;;;;5108830;27;45448;-70
2023/06/29 04:23:45;;;;;;;3.17;1.63;;;23.20;49.40;;;;;;5109027;27;45382;-70
2023/06/29 04:26:13;;;;;;;2.72;1.90;;;23.20;49.10;;;;;;5108714;27;46339;-70
2023/06/29 04:28:44;;;;;;;3.15;1.60;;;23.20;49.00;;;;;;5108660;27;45357;-70
2023/06/29 04:31:11;;;;;;;1.75;1.63;;;23.20;49.70;;;;;;5108769;27;45287;-70
2023/06/29 04:33:39;;;;;;;4.43;2.00;;;23.20;49.10;;;;;;5108750;27;45422;-70
2023/06/29 04:36:06;;;;;;;2.08;1.60;;;23.20;48.80;;;;;;5108521;27;45354;-68
2023/06/29 04:38:32;;;;;;;6.35;1.85;;;23.20;48.40;;;;;;5108531;27;45446;-70
2023/06/29 04:41:04;;;;;;;1.75;1.65;;;23.20;48.40;;;;;;5108685;27;45301;-70
2023/06/29 04:43:30;;;;;;;3.97;1.70;;;23.30;48.20;;;;;;5108429;27;45569;-70
2023/06/29 04:45:58;;;;;;;2.95;1.80;;;23.30;48.10;;;;;;5107914;27;45400;-70
2023/06/29 04:48:29;;;;;;;1.60;1.50;;;23.30;48.10;;;;;;5108264;27;45260;-69
2023/06/29 04:51:02;;;;;;;1.85;1.50;;;23.30;48.00;;;;;;5108025;27;45275;-70
2023/06/29 04:53:29;;;;;;;3.63;1.52;;;23.30;48.10;;;;;;5108413;27;45269;-70
2023/06/29 04:55:56;;;;;;;1.80;1.67;;;23.30;47.80;;;;;;5108150;27;46384;-70
2023/06/29 04:58:23;;;;;;;1.85;1.63;;;23.30;47.90;;;;;;5108036;27;45419;-69
2023/06/29 05:00:50;;;;;;;2.08;1.63;;;23.30;47.80;;;;;;5108243;27;45401;-69
2023/06/29 05:03:16;;;;;;;2.70;1.65;;;23.40;47.80;;;;;;5108057;27;45398;-69
2023/06/29 05:05:44;;;;;;;3.17;1.98;;;23.40;49.10;;;;;;5106516;27;45308;-69
2023/06/29 05:08:12;;;;;;;2.92;1.80;;;23.40;50.00;;;;;;5107934;27;45780;-70
2023/06/29 05:10:39;;;;;;;3.35;1.70;;;23.40;49.90;;;;;;5108410;27;45370;-70
2023/06/29 05:13:06;;;;;;;4.68;1.90;;;23.40;49.70;;;;;;5108099;27;45323;-70
2023/06/29 05:15:32;;;;;;;3.42;2.10;;;23.40;49.30;;;;;;5107964;27;46442;-70
2023/06/29 05:17:59;;;;;;;1.73;1.50;;;23.50;47.90;;;;;;5107846;27;45501;-70
2023/06/29 05:20:26;;;;;;;2.35;1.90;;;23.50;47.40;;;;;;5108085;27;45446;-70
2023/06/29 05:22:53;;;;;;;2.10;1.80;;;23.60;49.30;;;;;;5107809;27;45262;-70
2023/06/29 05:25:21;;;;;;;5.65;2.30;;;23.60;48.60;;;;;;5107625;27;46732;-70
2023/06/29 05:27:48;;;;;;;2.45;1.90;;;23.60;49.70;;;;;;5107696;27;45262;-71
2023/06/29 05:30:16;;;;;;;3.13;2.00;;;23.70;48.40;;;;;;5107811;27;45463;-70
2023/06/29 05:32:43;;;;;;;5.55;2.00;;;23.70;49.20;;;;;;5107791;27;45306;-70
2023/06/29 05:35:10;;;;;;;6.55;2.35;;;23.80;49.10;;;;;;5107460;27;45326;-70
2023/06/29 05:37:36;;;;;;;4.75;2.42;;;23.80;49.80;;;;;;5107481;27;45191;-70
2023/06/29 05:40:04;;;;;;;3.92;1.90;;;23.80;48.60;;;;;;5107486;27;45299;-70
2023/06/29 05:42:32;;;;;;;3.80;1.73;;;23.90;48.00;;;;;;5107484;27;45583;-70
2023/06/29 05:44:59;;;;;;;3.88;1.73;;;23.90;47.40;;;;;;5107205;27;45421;-70
2023/06/29 05:47:26;;;;;;;2.45;1.95;;;23.90;46.40;;;;;;5107252;27;45311;-70
2023/06/29 05:49:53;;;;;;;4.13;2.30;;;23.90;47.10;;;;;;5107123;27;45296;-70
2023/06/29 05:52:20;;;;;;;3.85;2.20;;;24.00;48.50;;;;;;5106972;27;45344;-70
2023/06/29 05:54:46;;;;;;;5.40;1.95;;;24.00;48.50;;;;;;5107156;27;46731;-70
2023/06/29 05:57:13;;;;;;;5.85;2.33;;;24.00;48.40;;;;;;5106229;27;45312;-69
2023/06/29 05:59:41;;;;;;;3.00;1.98;;;24.10;48.70;;;;;;5107334;27;45223;-70
2023/06/29 06:02:09;;;;;;;5.88;2.83;;;24.10;47.60;;;;;;5107239;27;45427;-70
2023/06/29 06:04:35;;;;;;;2.58;1.95;;;24.10;49.60;;;;;;5107140;27;46660;-70
2023/06/29 06:07:02;;;;;;;3.95;2.28;;;24.10;48.00;;;;;;5107263;27;45398;-70
2023/06/29 06:09:29;;;;;;;3.10;1.80;;;24.20;46.10;;;;;;5107475;27;45416;-70
2023/06/29 06:11:56;;;;;;;2.30;2.00;;;24.20;45.80;;;;;;5107185;27;45256;-70
2023/06/29 06:14:23;;;;;;;5.20;2.15;;;24.30;47.40;;;;;;5106677;27;45436;-70
2023/06/29 06:16:51;;;;;;;6.22;2.55;;;24.20;49.20;;;;;;5106947;27;45253;-70
2023/06/29 06:19:18;;;;;;;4.15;2.03;;;24.20;50.10;;;;;;5107321;27;45432;-70
2023/06/29 06:21:44;;;;;;;5.43;2.22;;;24.20;49.40;;;;;;5110138;27;45371;-70
2023/06/29 06:24:11;;;;;;;4.90;1.98;;;24.20;48.00;;;;;;5107086;27;46370;-70
2023/06/29 06:26:38;;;;;;;5.22;2.05;;;24.30;48.70;;;;;;5107112;27;45183;-70
2023/06/29 06:29:05;;;;;;;3.35;2.03;;;24.30;48.60;;;;;;5107131;27;45255;-70
2023/06/29 06:31:32;;;;;;;12.05;2.58;;;24.20;48.30;;;;;;5106765;27;45335;-70
2023/06/29 06:34:03;;;;;;;4.18;2.20;;;24.20;48.70;;;;;;5108566;27;46879;-69
2023/06/29 06:36:30;;;;;;;5.88;1.92;;;24.20;48.60;;;;;;5106799;27;45327;-70
2023/06/29 06:38:57;;;;;;;3.17;1.77;;;24.20;49.20;;;;;;5106497;27;45401;-69
2023/06/29 06:41:24;;;;;;;4.63;1.92;;;24.10;49.80;;;;;;5106871;27;45276;-69
2023/06/29 06:43:51;;;;;;;2.58;2.22;;;24.20;50.10;;;;;;5106396;27;46434;-69
2023/06/29 06:46:18;;;;;;;3.28;1.77;;;24.20;49.60;;;;;;5106317;27;45354;-69
2023/06/29 06:48:45;;;;;;;2.78;1.85;;;24.20;49.40;;;;;;5106912;27;45326;-70
2023/06/29 06:51:13;;;;;;;4.15;2.10;;;24.20;49.40;;;;;;5106020;27;45438;-70
2023/06/29 06:53:40;;;;;;;3.95;2.20;;;24.20;48.70;;;;;;5106103;27;46689;-69
2023/06/29 06:56:07;;;;;;;3.58;1.90;;;24.20;49.50;;;;;;5106243;27;45311;-70
2023/06/29 06:58:35;;;;;;;3.45;2.15;;;24.30;49.30;;;;;;5106246;27;45359;-70
2023/06/29 07:01:02;;;;;;;6.68;2.20;;;24.30;49.60;;;;;;5106354;27;45354;-69
2023/06/29 07:03:29;;;;;;;2.35;1.90;;;24.30;49.50;;;;;;5106081;27;45517;-69
2023/06/29 07:05:55;;;;;;;3.90;2.00;;;24.30;47.60;;;;;;5106079;27;45280;-70
2023/06/29 07:08:24;;;;;;;3.42;2.17;;;24.40;47.70;;;;;;5108029;27;45285;-69
2023/06/29 07:10:51;;;;;;;6.55;2.30;;;24.50;47.60;;;;;;5110064;27;45612;-69
2023/06/29 07:13:18;;;;;;;4.50;2.08;;;24.50;48.90;;;;;;5109241;27;45455;-69
2023/06/29 07:15:46;;;;;;;3.15;2.25;;;24.50;49.40;;;;;;5109407;27;45417;-69
2023/06/29 07:18:13;;;;;;;3.58;2.10;;;24.60;49.20;;;;;;5109477;27;45307;-69
2023/06/29 07:20:40;;;;;;;10.85;2.47;;;24.60;49.20;;;;;;5109894;27;45314;-70
2023/06/29 07:23:06;;;;;;;5.07;1.90;;;24.60;49.00;;;;;;5109435;27;46929;-69
2023/06/29 07:25:35;;;;;;;3.33;2.08;;;24.60;48.40;;;;;;5109475;27;45438;-70
2023/06/29 07:28:01;;;;;;;9.77;2.90;;;24.70;48.90;;;;;;5109592;27;45264;-70
2023/06/29 07:30:28;;;;;;;4.07;2.22;;;24.70;47.60;;;;;;5109763;27;45320;-69
2023/06/29 07:32:55;;;;;;;8.20;2.63;;;24.70;46.80;;;;;;5109254;27;45314;-69
2023/06/29 07:35:22;;;;;;;4.70;2.28;;;24.80;47.00;;;;;;5109290;27;45413;-70
2023/06/29 07:37:49;;;;;;;7.45;2.25;;;24.80;46.80;;;;;;5109379;27;45395;-70
2023/06/29 07:40:16;;;;;;;4.07;1.73;;;24.80;47.00;;;;;;5109638;27;45226;-70
2023/06/29 07:42:44;;;;;;;6.03;2.33;;;24.90;47.10;;;;;;5109041;27;46269;-69
2023/06/29 07:45:12;;;;;;;2.25;1.90;;;24.90;46.50;;;;;;5108999;27;45415;-68
2023/06/29 07:47:38;;;;;;;4.10;2.20;;;25.00;46.40;;;;;;5109380;27;45370;-70
2023/06/29 07:50:06;;;;;;;5.32;2.10;;;25.00;46.40;;;;;;5109404;27;45339;-70
2023/06/29 07:52:33;;;;;;;3.38;1.73;;;25.10;46.30;;;;;;5108726;27;47310;-69
2023/06/29 07:55:00;;;;;;;4.22;1.90;;;25.10;46.20;;;;;;5108990;27;45335;-70
2023/06/29 07:57:27;;;;;;;4.82;2.00;;;25.20;46.00;;;;;;5109143;27;45400;-70
2023/06/29 07:59:55;;;;;;;4.47;1.88;;;25.20;46.40;;;;;;5109419;27;45434;-70
2023/06/29 08:02:22;;;;;;;3.70;2.70;;;25.30;45.70;;;;;;5108401;27;46816;-69
2023/06/29 08:04:50;;;;;;;3.63;2.05;;;25.30;45.70;;;;;;5108856;27;45239;-70
2023/06/29 08:07:17;;;;;;;4.10;2.40;;;25.30;45.50;;;;;;5108907;27;45394;-70
2023/06/29 08:09:44;;;;;;;3.03;2.00;;;25.40;45.80;;;;;;5109052;27;45534;-70
2023/06/29 08:12:11;;;;;;;3.40;2.00;;;25.40;45.40;;;;;;5108644;27;45474;-70
2023/06/29 08:14:38;;;;;;;8.90;2.50;;;25.40;45.50;;;;;;5108988;27;45307;-70
2023/06/29 08:17:07;;;;;;;5.93;2.25;;;25.50;45.30;;;;;;5108708;27;45417;-70
2023/06/29 08:19:34;;;;;;;6.20;2.28;;;25.50;45.60;;;;;;5107992;27;45419;-70
2023/06/29 08:22:00;;;;;;;5.05;2.20;;;25.60;45.60;;;;;;5108377;27;46564;-70
2023/06/29 08:24:27;;;;;;;5.95;2.13;;;25.60;45.60;;;;;;5108495;27;45268;-70
2023/06/29 08:26:54;;;;;;;3.63;2.00;;;25.60;45.20;;;;;;5108685;27;45184;-70
2023/06/29 08:29:21;;;;;;;3.30;2.10;;;25.60;45.00;;;;;;5109032;27;45450;-70
2023/06/29 08:31:48;;;;;;;5.97;2.20;;;25.70;45.20;;;;;;5108567;27;46845;-70
2023/06/29 08:34:16;;;;;;;3.67;2.20;;;25.80;45.20;;;;;;5108442;27;45304;-70
2023/06/29 08:36:43;;;;;;;4.85;2.22;;;25.80;45.60;;;;;;5108680;27;45245;-70
2023/06/29 08:39:10;;;;;;;5.93;2.20;;;25.90;45.00;;;;;;5109165;27;45363;-70
2023/06/29 08:41:37;;;;;;;8.88;3.10;;;26.00;45.10;;;;;;5108402;27;46400;-70
2023/06/29 08:44:04;;;;;;;3.65;2.05;;;26.00;45.10;;;;;;5108190;27;46072;-70
2023/06/29 08:46:31;;;;;;;5.07;2.42;;;26.10;45.00;;;;;;5108256;27;45415;-70
2023/06/29 08:48:58;;;;;;;3.83;2.70;;;26.00;44.50;;;;;;5108473;27;45250;-70
2023/06/29 08:51:26;;;;;;;2.92;2.30;;;26.10;44.50;;;;;;5108017;27;46616;-70
2023/06/29 08:53:53;;;;;;;5.35;2.30;;;26.10;44.40;;;;;;5108084;27;45370;-70
2023/06/29 08:56:20;;;;;;;6.70;2.22;;;26.20;44.60;;;;;;5108570;27;45377;-70
2023/06/29 08:58:47;;;;;;;5.57;2.42;;;26.20;44.60;;;;;;5108507;27;45433;-70
2023/06/29 09:01:14;;;;;;;7.35;2.60;;;26.30;44.50;;;;;;5108207;27;45402;-70
2023/06/29 09:03:40;;;;;;;3.85;2.00;;;26.30;44.30;;;;;;5108213;27;45342;-70
2023/06/29 09:06:09;;;;;;;5.30;2.00;;;26.30;44.30;;;;;;5108458;27;45445;-70
2023/06/29 09:08:38;;;;;;;5.70;2.25;;;26.30;44.30;;;;;;5108366;27;45577;-70
2023/06/29 09:11:05;;;;;;;4.43;2.03;;;26.40;44.00;;;;;;5107984;27;46672;-70
2023/06/29 09:13:33;;;;;;;4.95;1.95;;;26.40;44.10;;;;;;5108038;27;45342;-70
2023/06/29 09:16:01;;;;;;;4.35;2.30;;;26.40;44.00;;;;;;5108177;27;45384;-70
2023/06/29 09:18:28;;;;;;;4.15;2.42;;;26.50;44.00;;;;;;5108343;27;45469;-70
2023/06/29 09:20:55;;;;;;;4.53;1.80;;;26.50;43.70;;;;;;5107863;27;47312;-70
2023/06/29 09:23:22;;;;;;;5.45;2.25;;;26.50;43.80;;;;;;5107939;27;45377;-70
2023/06/29 09:25:51;;;;;;;2.78;2.00;;;26.60;43.80;;;;;;5108047;27;45507;-70
2023/06/29 09:28:18;;;;;;;3.22;2.30;;;26.60;43.60;;;;;;5108099;27;45418;-70
2023/06/29 09:30:45;;;;;;;3.90;2.42;;;26.60;43.40;;;;;;5107166;27;46461;-70
2023/06/29 09:33:12;;;;;;;3.67;2.20;;;26.70;43.40;;;;;;5106808;27;45465;-70
2023/06/29 09:35:41;;;;;;;3.85;1.63;;;26.70;43.20;;;;;;5107862;27;45374;-70
2023/06/29 09:38:07;;;;;;;2.63;2.17;;;26.80;43.20;;;;;;5107989;27;45348;-69
2023/06/29 09:40:48;;;;;;;2.47;1.88;;;26.80;43.10;;;;;;5107659;27;46452;-70
2023/06/29 09:43:20;;;;;;;3.30;1.83;;;26.90;42.90;;;;;;5107372;27;45401;-70
2023/06/29 09:45:47;;;;;;;4.72;2.20;;;26.90;42.80;;;;;;5108044;27;45331;-70
2023/06/29 09:48:14;;;;;;;3.50;1.80;;;27.00;42.90;;;;;;5108042;27;45394;-70
2023/06/29 09:50:43;;;;;;;2.85;1.85;;;27.10;43.10;;;;;;5107100;27;45362;-70
2023/06/29 09:53:10;;;;;;;4.95;2.00;;;27.10;43.10;;;;;;5107285;27;45328;-70
2023/06/29 09:55:38;;;;;;;2.95;1.90;;;27.20;43.10;;;;;;5107688;27;45350;-70
2023/06/29 09:58:04;;;;;;;4.32;2.08;;;27.20;42.70;;;;;;5107665;27;45399;-70
2023/06/29 10:00:33;;;;;;;4.05;2.05;;;27.20;42.60;;;;;;5107237;27;47300;-70
2023/06/29 10:03:00;;;;;;;5.53;2.13;;;27.30;42.70;;;;;;5107476;27;45330;-70
2023/06/29 10:05:30;;;;;;;4.72;1.98;;;27.30;42.60;;;;;;5107421;27;45321;-70
2023/06/29 10:07:57;;;;;;;3.45;1.90;;;27.30;42.40;;;;;;5107790;27;45385;-70
2023/06/29 10:10:25;;;;;;;2.80;1.75;;;27.40;42.50;;;;;;5107121;27;45333;-70
2023/06/29 10:12:54;;;;;;;3.45;2.03;;;27.50;42.20;;;;;;5107216;27;45242;-70
2023/06/29 10:15:21;;;;;;;2.13;1.92;;;27.50;42.30;;;;;;5107050;27;44781;-70
2023/06/29 10:17:52;;;;;;;4.05;2.08;;;27.50;41.90;;;;;;5107290;27;45241;-70
2023/06/29 10:20:19;;;;;;;2.33;1.80;;;27.60;42.70;;;;;;5106909;27;46397;-70
2023/06/29 10:22:46;;;;;;;3.20;1.80;;;27.60;41.90;;;;;;5106902;27;45320;-69
2023/06/29 10:25:15;;;;;;;3.78;2.05;;;27.60;42.60;;;;;;5106788;27;45280;-70
2023/06/29 10:27:42;;;;;;;2.00;1.80;;;27.70;41.80;;;;;;5106872;27;45327;-70
2023/06/29 10:30:10;;;;;;;4.13;2.17;;;27.70;42.30;;;;;;5106705;27;46322;-70
2023/06/29 10:32:37;;;;;;;4.03;2.08;;;27.80;42.30;;;;;;5106677;27;45370;-70
2023/06/29 10:35:06;;;;;;;3.55;2.28;;;27.90;42.30;;;;;;5106828;27;45348;-70
2023/06/29 10:37:34;;;;;;;2.13;1.85;;;27.90;41.80;;;;;;5107043;27;45422;-70
2023/06/29 10:40:00;;;;;;;4.07;2.25;;;28.00;42.00;;;;;;5106609;27;45371;-70
2023/06/29 10:42:50;;;;;;;2.80;2.05;;;28.10;41.30;;;;;;5106067;27;45298;-70
2023/06/29 10:45:32;;;;;;;4.55;2.47;;;28.10;41.50;;;;;;5106642;27;45401;-70
2023/06/29 10:48:09;;;;;;;2.75;2.13;;;28.10;41.70;;;;;;5106936;27;45601;-70
2023/06/29 10:50:41;;;;;;;3.75;2.10;;;28.10;41.80;;;;;;5106365;27;45263;-70
2023/06/29 10:53:11;;;;;;;5.43;2.40;;;28.10;41.90;;;;;;5106439;27;45327;-70
2023/06/29 10:55:42;;;;;;;6.30;2.28;;;28.20;41.90;;;;;;5106823;27;45409;-71
2023/06/29 10:58:18;;;;;;;5.13;2.10;;;28.20;41.70;;;;;;5106886;27;45320;-70
2023/06/29 11:00:45;;;;;;;4.03;2.92;;;28.20;41.60;;;;;;5106276;27;46833;-70
2023/06/29 11:03:12;;;;;;;3.28;2.05;;;28.30;41.60;;;;;;5106390;27;45335;-70
2023/06/29 11:05:41;;;;;;;2.15;2.00;;;28.30;41.50;;;;;;5106410;27;45323;-70
2023/06/29 11:08:08;;;;;;;2.25;1.90;;;28.40;41.40;;;;;;5106523;27;45390;-70
2023/06/29 11:10:34;;;;;;;2.53;2.10;;;28.40;41.30;;;;;;5105970;27;46412;-71
2023/06/29 11:13:01;;;;;;;2.90;1.98;;;28.40;41.20;;;;;;5106102;27;45145;-70
2023/06/29 11:15:28;;;;;;;2.25;2.00;;;28.50;41.20;;;;;;5106488;27;45504;-70
2023/06/29 11:17:55;;;;;;;2.83;2.30;;;28.50;41.10;;;;;;5106490;27;45384;-70
2023/06/29 11:20:27;;;;;;;3.47;2.03;;;28.50;41.00;;;;;;5106119;27;47030;-70
2023/06/29 11:22:57;;;;;;;3.47;2.03;;;28.60;40.90;;;;;;5106025;27;45429;-70
2023/06/29 11:25:24;;;;;;;2.67;2.10;;;28.60;40.80;;;;;;5106532;27;45303;-70
2023/06/29 11:27:52;;;;;;;2.33;2.05;;;28.60;40.70;;;;;;5106865;27;45222;-71
2023/06/29 11:30:20;;;;;;;2.42;2.13;;;28.70;40.70;;;;;;5106768;27;46725;-71
2023/06/29 11:32:49;;;;;;;3.08;2.25;;;28.80;40.60;;;;;;5106409;27;45314;-72
2023/06/29 11:35:16;;;;;;;2.28;1.83;;;28.80;40.10;;;;;;5106416;27;45261;-72
2023/06/29 11:37:43;;;;;;;2.60;2.40;;;28.90;39.90;;;;;;5106049;27;45177;-70
2023/06/29 11:40:19;;;;;;;2.78;2.10;;;28.90;39.90;;;;;;5105847;27;47320;-70
2023/06/29 11:42:45;;;;;;;2.25;1.98;;;28.90;40.50;;;;;;5105929;27;45409;-70
2023/06/29 11:45:13;;;;;;;2.35;2.13;;;29.00;40.00;;;;;;5106003;27;45368;-71
2023/06/29 11:47:41;;;;;;;4.22;2.45;;;29.00;40.00;;;;;;5106480;27;45407;-71
2023/06/29 11:50:10;;;;;;;4.18;2.50;;;29.00;39.50;;;;;;5105911;27;46489;-71
2023/06/29 11:52:37;;;;;;;3.00;1.90;;;29.10;39.20;;;;;;5105853;27;45469;-70
2023/06/29 11:55:04;;;;;;;4.07;2.10;;;29.10;39.20;;;;;;5107089;27;45326;-70
2023/06/29 11:57:33;;;;;;;2.35;2.10;;;29.10;39.40;;;;;;5109361;27;45260;-70
2023/06/29 12:00:00;;;;;;;3.70;1.80;;;29.10;39.40;;;;;;5109598;27;46426;-71
2023/06/29 12:02:27;;;;;;;2.40;2.08;;;29.20;39.40;;;;;;5109357;27;45368;-71
2023/06/29 12:04:56;;;;;;;2.35;2.13;;;29.20;39.10;;;;;;5109738;27;45255;-71
2023/06/29 12:07:36;;;;;;;4.68;2.30;;;29.30;39.00;;;;;;5110088;27;45494;-72
2023/06/29 12:10:03;;;;;;;3.15;2.10;;;29.30;38.90;;;;;;5109513;27;45900;-72
2023/06/29 12:12:35;;;;;;;3.92;2.20;;;29.30;38.60;;;;;;5109443;27;45256;-72
2023/06/29 12:15:14;;;;;;;4.53;2.25;;;29.30;38.70;;;;;;5109608;27;45340;-72
2023/06/29 12:17:41;;;;;;;6.30;2.38;;;29.40;38.90;;;;;;5109674;27;45397;-71
2023/06/29 12:20:15;;;;;;;3.58;2.10;;;29.40;39.50;;;;;;5108890;27;46382;-71
2023/06/29 12:22:42;;;;;;;7.05;2.67;;;29.50;38.90;;;;;;5109157;27;45260;-71
2023/06/29 12:25:13;;;;;;;3.45;2.40;;;29.50;38.80;;;;;;5109389;27;45380;-71
2023/06/29 12:27:42;;;;;;;4.43;2.30;;;29.50;38.80;;;;;;5109491;27;45203;-70
2023/06/29 12:30:11;;;;;;;2.63;2.10;;;29.50;38.90;;;;;;5108481;27;46290;-70
2023/06/29 12:32:38;;;;;;;4.35;2.20;;;29.60;38.90;;;;;;5108571;27;45332;-70
2023/06/29 12:35:05;;;;;;;2.72;1.95;;;29.50;38.90;;;;;;5108624;27;45197;-71
2023/06/29 12:37:32;;;;;;;2.63;2.38;;;29.60;39.00;;;;;;5108857;27;45300;-71
2023/06/29 12:39:59;;;;;;;3.63;2.08;;;29.60;39.10;;;;;;5108038;27;47376;-70
2023/06/29 12:42:26;;;;;;;3.30;2.22;;;29.60;39.10;;;;;;5108483;27;45342;-70
2023/06/29 12:44:54;;;;;;;2.53;1.90;;;29.60;39.10;;;;;;5108686;27;45382;-70
2023/06/29 12:47:21;;;;;;;3.72;2.05;;;29.60;39.10;;;;;;5108818;27;45251;-70
2023/06/29 12:49:50;;;;;;;2.63;2.35;;;29.60;39.70;;;;;;5108765;27;45447;-72